Time;durP1;ratioP1;P1;durP2;ratioP2;P2;SDS_P1;SDS_P2;PMS_P1;PMS_P2;Temp;Humidity;BMP_temperature;BMP_pressure;BME280_temperature;BME280_humidity;BME280_pressure;Samples;Min_cycle;Max_cycle;Signal;HPM_P1;HPM_P2
2022/04/16 00:00:23;;;;;;;41.42;25.23;;;;;;;5.66;100.00;103198.81;10345875;28;20054;-86
2022/04/16 00:05:23;;;;;;;47.65;26.92;;;;;;;5.89;100.00;103202.78;10346292;28;20046;-85
2022/04/16 00:10:24;;;;;;;47.80;25.90;;;;;;;6.06;100.00;103204.59;10345725;28;20538;-86
2022/04/16 00:15:25;;;;;;;43.47;25.73;;;;;;;6.19;100.00;103210.44;10345406;28;20070;-85
2022/04/16 00:20:27;;;;;;;52.67;27.20;;;;;;;6.26;100.00;103211.47;10344600;28;20030;-87
2022/04/16 00:25:33;;;;;;;43.53;26.98;;;;;;;6.32;100.00;103195.41;10326332;28;20100;-86
2022/04/16 00:30:37;;;;;;;45.80;25.40;;;;;;;6.34;100.00;103196.94;10346602;28;20034;-87
2022/04/16 00:35:38;;;;;;;43.85;26.80;;;;;;;6.34;100.00;103196.94;10345302;28;20081;-85
2022/04/16 00:40:39;;;;;;;42.13;25.40;;;;;;;6.11;100.00;103172.13;10350436;28;20066;-85
2022/04/16 00:45:39;;;;;;;46.88;25.50;;;;;;;5.85;100.00;103145.72;10336018;28;20126;-86
2022/04/16 00:50:40;;;;;;;45.33;25.70;;;;;;;6.23;100.00;103205.50;10352641;28;20069;-85
2022/04/16 00:55:41;;;;;;;46.47;25.08;;;;;;;6.20;100.00;103190.28;10352719;28;20040;-85
2022/04/16 01:00:41;;;;;;;42.28;24.45;;;;;;;6.28;100.00;103218.66;10353053;28;20030;-84
2022/04/16 01:05:41;;;;;;;38.58;23.90;;;;;;;6.21;100.00;103218.47;10318069;28;20047;-87
2022/04/16 01:10:42;;;;;;;39.75;23.92;;;;;;;5.93;100.00;103201.44;10328218;28;20042;-86
2022/04/16 01:15:42;;;;;;;42.92;23.63;;;;;;;5.78;100.00;103214.88;10328050;28;20823;-87
2022/04/16 01:20:44;;;;;;;44.75;25.92;;;;;;;5.70;100.00;103218.44;10295160;28;20038;-87
2022/04/16 01:25:45;;;;;;;48.85;26.33;;;;;;;5.83;100.00;103216.13;10336271;28;20038;-86
2022/04/16 01:30:46;;;;;;;48.50;26.35;;;;;;;6.17;100.00;103228.88;10327947;28;20070;-84
2022/04/16 01:35:47;;;;;;;46.13;26.58;;;;;;;6.39;100.00;103235.59;10312798;28;20050;-85
2022/04/16 01:40:48;;;;;;;42.30;24.50;;;;;;;6.41;100.00;103214.41;10310691;28;20031;-84
2022/04/16 01:45:50;;;;;;;44.08;25.85;;;;;;;6.62;100.00;103244.00;10310154;28;20053;-85
2022/04/16 01:50:50;;;;;;;39.85;23.90;;;;;;;6.71;100.00;103235.81;10309269;28;20034;-82
2022/04/16 01:55:51;;;;;;;41.83;26.20;;;;;;;6.77;100.00;103237.88;10309680;28;20089;-83
2022/04/16 02:00:51;;;;;;;43.85;25.35;;;;;;;6.87;100.00;103241.28;10309871;28;20051;-84
2022/04/16 02:05:52;;;;;;;51.83;28.10;;;;;;;6.97;100.00;103249.34;10311023;28;20038;-86
2022/04/16 02:10:53;;;;;;;47.40;27.35;;;;;;;7.06;100.00;103249.13;10294399;28;20086;-86
2022/04/16 02:15:54;;;;;;;52.92;29.55;;;;;;;7.14;100.00;103256.50;10337083;28;20054;-86
2022/04/16 02:20:55;;;;;;;50.70;30.40;;;;;;;7.16;100.00;103261.81;10341175;28;20045;-84
2022/04/16 02:25:55;;;;;;;47.35;28.85;;;;;;;7.19;100.00;103258.72;10309727;28;20454;-87
2022/04/16 02:30:55;;;;;;;51.08;31.00;;;;;;;6.99;100.00;103222.63;10293040;28;20055;-87
2022/04/16 02:35:57;;;;;;;55.90;30.73;;;;;;;7.19;100.00;103264.19;10324925;28;20034;-86
2022/04/16 02:40:57;;;;;;;51.30;31.65;;;;;;;7.20;100.00;103274.97;10293596;28;20043;-90
2022/04/16 02:51:18;;;;;;;51.42;29.42;;;;;;;6.71;100.00;103208.44;10314374;28;20081;-85
2022/04/16 02:56:18;;;;;;;51.92;31.27;;;;;;;7.10;100.00;103292.63;10307835;28;20037;-87
2022/04/16 03:01:19;;;;;;;52.95;30.88;;;;;;;7.07;100.00;103296.56;10307856;28;20027;-86
2022/04/16 03:06:19;;;;;;;53.65;32.67;;;;;;;6.94;100.00;103279.78;10308109;28;20447;-86
2022/04/16 03:11:20;;;;;;;51.85;32.20;;;;;;;6.87;100.00;103285.09;10320871;28;20051;-87
2022/04/16 03:21:39;;;;;;;50.85;30.65;;;;;;;6.85;100.00;103298.09;10306680;28;20049;-84
2022/04/16 03:26:40;;;;;;;45.45;29.02;;;;;;;6.81;100.00;103299.47;10323337;28;20031;-83
2022/04/16 03:31:40;;;;;;;50.65;29.90;;;;;;;6.80;100.00;103312.31;10307295;28;20085;-88
2022/04/16 03:36:41;;;;;;;51.30;31.15;;;;;;;6.82;100.00;103317.59;10290361;28;20163;-86
2022/04/16 03:41:41;;;;;;;43.78;29.00;;;;;;;6.80;100.00;103314.16;10314498;28;20485;-86
2022/04/16 03:46:42;;;;;;;43.28;27.17;;;;;;;6.82;100.00;103321.22;10346126;28;20088;-83
2022/04/16 03:51:44;;;;;;;42.55;26.30;;;;;;;6.63;100.00;103300.47;10329931;28;20034;-87
2022/04/16 04:02:03;;;;;;;39.63;22.70;;;;;;;6.60;100.00;103310.91;10347149;28;20501;-85
2022/04/16 04:07:04;;;;;;;32.42;21.20;;;;;;;6.66;100.00;103338.47;10330152;28;20042;-80
2022/04/16 04:12:09;;;;;;;35.50;21.92;;;;;;;6.62;100.00;103339.81;10317390;28;20049;-87
2022/04/16 04:17:10;;;;;;;32.92;20.20;;;;;;;6.46;100.00;103310.53;10308701;28;20081;-88
2022/04/16 04:22:13;;;;;;;31.20;20.50;;;;;;;6.67;100.00;103348.38;10306214;28;20035;-84
2022/04/16 04:27:13;;;;;;;32.05;18.40;;;;;;;6.72;100.00;103358.84;10321900;28;20031;-84
2022/04/16 04:32:14;;;;;;;32.60;19.00;;;;;;;6.73;100.00;103373.38;10344213;28;20026;-87
2022/04/16 04:37:14;;;;;;;35.47;21.17;;;;;;;6.72;100.00;103369.78;10345157;28;20046;-84
2022/04/16 04:42:24;;;;;;;39.72;22.33;;;;;;;6.73;100.00;103373.38;10331590;28;20037;-83
2022/04/16 04:47:24;;;;;;;39.55;22.20;;;;;;;6.75;100.00;103379.53;10305736;28;20045;-86
2022/04/16 04:52:29;;;;;;;37.85;22.00;;;;;;;6.76;100.00;103386.72;10305096;28;20031;-87
2022/04/16 04:57:30;;;;;;;37.90;23.08;;;;;;;6.69;100.00;103380.22;10308713;28;20042;-88
2022/04/16 05:02:57;;;;;;;40.17;21.65;;;;;;;6.77;100.00;103404.88;10304291;28;20064;-85
2022/04/16 05:07:57;;;;;;;35.30;20.30;;;;;;;6.79;100.00;103400.09;10310095;28;20141;-88
2022/04/16 05:12:58;;;;;;;33.28;20.90;;;;;;;6.77;100.00;103407.63;10323299;28;20074;-83
2022/04/16 05:17:58;;;;;;;32.08;18.27;;;;;;;6.80;100.00;103410.88;10288783;28;20034;-86
2022/04/16 05:22:58;;;;;;;27.05;16.38;;;;;;;6.77;100.00;103411.19;10305732;28;20027;-87
2022/04/16 05:27:59;;;;;;;32.13;18.48;;;;;;;6.68;100.00;103414.94;10294756;28;20038;-90
2022/04/16 05:33:16;;;;;;;36.85;19.17;;;;;;;6.50;100.00;103404.09;10301625;28;20031;-91
2022/04/16 05:38:16;;;;;;;36.03;20.90;;;;;;;6.37;100.00;103429.19;10345941;28;20043;-89
2022/04/16 05:43:16;;;;;;;31.38;19.23;;;;;;;6.38;100.00;103443.72;10353570;28;20041;-87
2022/04/16 05:48:17;;;;;;;30.05;19.08;;;;;;;6.42;100.00;103445.97;10355967;28;20055;-88
2022/04/16 05:53:18;;;;;;;31.05;18.27;;;;;;;6.50;100.00;103439.69;10352744;28;20035;-88
2022/04/16 05:58:18;;;;;;;34.03;18.27;;;;;;;6.53;100.00;103425.69;10337826;28;20037;-90
2022/04/16 06:03:18;;;;;;;32.92;18.85;;;;;;;6.77;100.00;103448.69;10337396;28;20042;-89
2022/04/16 06:08:19;;;;;;;32.17;18.40;;;;;;;6.91;100.00;103450.78;10315729;28;20043;-90
2022/04/16 06:13:19;;;;;;;29.52;16.67;;;;;;;6.81;100.00;103415.31;10285976;28;20049;-90
2022/04/16 06:18:20;;;;;;;30.60;17.27;;;;;;;7.10;100.00;103465.22;10351707;28;20061;-89
2022/04/16 06:23:24;;;;;;;32.22;15.32;;;;;;;7.13;100.00;103448.41;10350472;28;20042;-86
2022/04/16 06:28:24;;;;;;;26.58;15.57;;;;;;;7.33;100.00;103463.53;10350109;28;20066;-82
2022/04/16 06:33:25;;;;;;;26.38;14.98;;;;;;;7.38;100.00;103433.75;10349526;28;20038;-87
2022/04/16 06:38:26;;;;;;;21.83;12.38;;;;;;;7.66;100.00;103458.06;10348879;28;20034;-90
2022/04/16 06:43:26;;;;;;;10.80;5.72;;;;;;;7.72;100.00;103449.16;10333124;28;20026;-85
2022/04/16 06:48:27;;;;;;;10.23;4.57;;;;;;;7.76;100.00;103445.03;10348993;28;20093;-86
2022/04/16 06:53:27;;;;;;;8.05;3.80;;;;;;;7.88;100.00;103443.66;10359624;28;20034;-87
2022/04/16 06:58:28;;;;;;;7.07;4.03;;;;;;;8.14;100.00;103456.28;10392014;28;20041;-83
2022/04/16 07:03:28;;;;;;;7.82;4.40;;;;;;;8.21;100.00;103453.72;10389642;28;20026;-92
2022/04/16 07:08:29;;;;;;;6.45;3.63;;;;;;;8.33;100.00;103465.16;10369009;28;20057;-86
2022/04/16 07:13:29;;;;;;;7.10;4.10;;;;;;;8.58;100.00;103465.97;10385092;28;20033;-88
2022/04/16 07:18:30;;;;;;;7.15;4.55;;;;;;;8.65;100.00;103470.59;10389848;28;20436;-86
2022/04/16 07:23:30;;;;;;;7.18;4.00;;;;;;;8.69;100.00;103479.34;10389277;28;20120;-81
2022/04/16 07:28:31;;;;;;;9.73;3.53;;;;;;;8.68;100.00;103474.84;10388853;28;20022;-91
2022/04/16 07:33:31;;;;;;;8.38;3.47;;;;;;;8.69;100.00;103463.69;10374687;28;20038;-87
2022/04/16 07:38:32;;;;;;;4.13;2.60;;;;;;;8.84;100.00;103484.94;10389888;28;20056;-88
2022/04/16 07:43:33;;;;;;;7.00;2.90;;;;;;;8.78;100.00;103471.91;10376046;28;20041;-81
2022/04/16 07:48:33;;;;;;;2.88;1.90;;;;;;;8.90;98.61;103470.47;10395437;28;20026;-90
2022/04/16 07:53:34;;;;;;;3.58;1.50;;;;;;;9.06;96.48;103464.88;10371218;28;20045;-87
2022/04/16 07:58:34;;;;;;;3.42;1.77;;;;;;;9.26;92.03;103469.91;10357498;28;20034;-91
2022/04/16 08:03:35;;;;;;;3.60;1.20;;;;;;;9.33;90.33;103470.91;10342848;28;20042;-87
2022/04/16 08:08:35;;;;;;;2.03;0.90;;;;;;;9.53;88.06;103471.28;10376488;28;20045;-88
2022/04/16 08:13:37;;;;;;;1.13;0.70;;;;;;;9.71;83.10;103468.19;10350335;28;20073;-88
2022/04/16 08:18:37;;;;;;;2.40;0.85;;;;;;;9.83;79.75;103450.22;10387655;28;20042;-83
2022/04/16 08:23:44;;;;;;;3.83;0.90;;;;;;;9.73;75.48;103448.75;10373348;28;20534;-89
2022/04/16 08:28:44;;;;;;;2.92;0.70;;;;;;;9.87;74.33;103434.19;10387790;28;20079;-80
2022/04/16 08:33:45;;;;;;;1.42;0.50;;;;;;;9.95;74.81;103447.88;10383498;28;20030;-82
2022/04/16 08:38:45;;;;;;;1.45;0.68;;;;;;;10.03;73.14;103444.19;10385522;28;20034;-85
2022/04/16 08:43:46;;;;;;;1.35;0.50;;;;;;;10.23;73.90;103450.84;10363930;28;20031;-84
2022/04/16 08:48:46;;;;;;;4.10;1.35;;;;;;;10.39;74.37;103466.34;10305809;28;20042;-91
2022/04/16 08:53:47;;;;;;;2.05;0.55;;;;;;;10.65;72.35;103465.88;10307938;28;20046;-89
2022/04/16 08:58:47;;;;;;;3.25;0.70;;;;;;;10.91;71.70;103461.72;10305728;28;20046;-88
2022/04/16 09:03:48;;;;;;;0.98;0.60;;;;;;;10.88;71.18;103454.72;10324514;28;20018;-90
2022/04/16 09:08:48;;;;;;;1.10;0.70;;;;;;;10.89;70.83;103448.16;10392290;28;20053;-87
2022/04/16 09:13:49;;;;;;;1.10;0.70;;;;;;;11.09;71.31;103448.38;10387115;28;20042;-88
2022/04/16 09:18:53;;;;;;;1.90;1.00;;;;;;;11.08;69.91;103448.59;10393437;28;20482;-86
2022/04/16 09:24:00;;;;;;;2.30;1.00;;;;;;;11.25;70.82;103436.25;10372034;28;20032;-91
2022/04/16 09:29:14;;;;;;;;;;;;;;;11.40;69.27;103436.19;10376858;28;20061;-88
2022/04/16 09:34:21;;;;;;;1.55;0.70;;;;;;;11.46;68.06;103429.88;10388953;28;19921;-86
2022/04/16 09:39:22;;;;;;;1.63;0.80;;;;;;;11.70;69.91;103439.66;10391706;28;20065;-81
2022/04/16 09:44:25;;;;;;;1.75;0.80;;;;;;;11.85;68.83;103436.81;10387124;28;20022;-82
2022/04/16 09:49:26;;;;;;;2.65;0.80;;;;;;;12.03;68.21;103436.34;10390551;28;20054;-89
2022/04/16 09:54:27;;;;;;;2.42;1.15;;;;;;;12.07;71.40;103434.88;10393304;28;20026;-81
2022/04/16 09:59:27;;;;;;;4.15;1.10;;;;;;;12.25;68.85;103434.34;10373946;28;20065;-91
2022/04/16 10:04:28;;;;;;;2.00;0.80;;;;;;;12.29;69.90;103435.66;10373857;28;20724;-79
2022/04/16 10:09:30;;;;;;;2.08;0.70;;;;;;;12.47;65.62;103426.00;10372944;28;20097;-80
2022/04/16 10:14:37;;;;;;;2.00;0.82;;;;;;;12.56;65.31;103424.75;10385071;28;20034;-87
2022/04/16 10:19:45;;;;;;;1.92;0.77;;;;;;;12.47;65.89;103420.47;10391369;28;20026;-76
2022/04/16 10:24:48;;;;;;;0.80;0.70;;;;;;;12.84;66.10;103423.81;10357947;28;20021;-81
2022/04/16 10:29:49;;;;;;;2.22;0.70;;;;;;;13.11;66.10;103420.03;10390923;28;20041;-77
2022/04/16 10:34:49;;;;;;;1.38;0.68;;;;;;;13.21;62.84;103413.25;10375375;28;20063;-79
2022/04/16 10:39:53;;;;;;;1.40;0.85;;;;;;;13.54;62.42;103407.81;10318096;28;20037;-81
2022/04/16 10:44:54;;;;;;;1.08;0.70;;;;;;;13.93;64.26;103423.53;10310190;28;20490;-81
2022/04/16 10:49:56;;;;;;;1.77;0.55;;;;;;;14.02;56.02;103395.63;10314443;28;20042;-80
2022/04/16 10:55:06;;;;;;;1.58;0.68;;;;;;;13.85;53.41;103379.47;10341703;28;20074;-80
2022/04/16 11:00:14;;;;;;;0.50;0.40;;;;;;;13.95;55.77;103397.53;10347289;28;20047;-75
2022/04/16 11:05:15;;;;;;;3.97;0.75;;;;;;;14.13;52.10;103370.00;10347542;28;20038;-82
2022/04/16 11:10:21;;;;;;;2.55;0.70;;;;;;;14.39;51.92;103379.34;10347207;28;20061;-73
2022/04/16 11:15:26;;;;;;;4.05;0.82;;;;;;;14.54;54.51;103388.22;10331668;28;20221;-72
2022/04/16 11:20:27;;;;;;;2.47;0.60;;;;;;;14.83;52.78;103378.50;10331106;28;20038;-75
2022/04/16 11:34:14;;;;;;;2.83;0.50;;;;;;;14.89;51.99;103368.44;10345448;28;20039;-72
2022/04/16 11:36:08;;;;;;;1.33;0.60;;;;;;;15.01;53.35;103361.13;10347797;28;20465;-73
2022/04/16 11:41:10;;;;;;;3.33;0.98;;;;;;;14.97;52.71;103348.75;10348285;28;20053;-70
2022/04/16 11:46:12;;;;;;;4.63;0.80;;;;;;;14.93;48.35;103341.97;10346123;28;20098;-71
2022/04/16 11:51:13;;;;;;;3.75;1.10;;;;;;;14.96;48.59;103341.50;10347055;28;20034;-70
2022/04/16 11:56:21;;;;;;;1.23;0.47;;;;;;;15.06;50.95;103329.91;10346663;28;20038;-71
2022/04/16 12:01:22;;;;;;;0.68;0.50;;;;;;;16.10;49.49;103336.66;10345088;28;20026;-71
2022/04/16 12:06:23;;;;;;;3.03;0.60;;;;;;;16.75;47.07;103336.00;10346081;28;20380;-71
2022/04/16 12:11:23;;;;;;;1.42;0.70;;;;;;;17.37;44.00;103318.16;10379039;28;20034;-69
2022/04/16 12:16:24;;;;;;;0.95;0.50;;;;;;;18.15;45.29;103335.59;10358722;28;20130;-71
2022/04/16 12:21:24;;;;;;;1.20;0.50;;;;;;;18.90;42.57;103317.84;10344839;28;20041;-70
2022/04/16 12:26:25;;;;;;;2.85;0.50;;;;;;;18.94;41.00;103326.56;10346704;28;20026;-71
2022/04/16 12:31:29;;;;;;;3.80;0.70;;;;;;;19.11;39.74;103279.13;10347178;28;20034;-70
2022/04/16 12:36:30;;;;;;;6.38;0.50;;;;;;;19.66;37.39;103300.66;10324546;28;20038;-72
2022/04/16 12:41:30;;;;;;;5.20;0.60;;;;;;;20.01;38.56;103316.28;10395132;28;20520;-71
2022/04/16 12:46:31;;;;;;;2.17;0.57;;;;;;;20.06;37.03;103315.50;10329214;28;20050;-71
2022/04/16 12:51:31;;;;;;;4.15;0.60;;;;;;;19.98;37.28;103301.97;10387167;28;20484;-70
2022/04/16 12:56:32;;;;;;;1.23;0.50;;;;;;;20.18;36.03;103296.63;10395202;28;20410;-71
2022/04/16 13:01:34;;;;;;;2.15;0.50;;;;;;;20.52;35.30;103299.25;10395127;28;20470;-70
2022/04/16 13:06:34;;;;;;;2.45;0.65;;;;;;;20.66;36.22;103292.16;10394839;28;20132;-71
2022/04/16 13:11:37;;;;;;;2.13;0.60;;;;;;;20.15;34.56;103291.56;10389971;28;20095;-72
2022/04/16 13:16:38;;;;;;;1.23;0.50;;;;;;;20.07;34.74;103270.50;10388705;28;20045;-70
2022/04/16 13:21:39;;;;;;;0.50;0.40;;;;;;;20.58;36.48;103283.38;10389089;28;20037;-70
2022/04/16 13:26:39;;;;;;;1.30;0.60;;;;;;;20.55;34.70;103267.97;10391807;28;20105;-71
2022/04/16 13:31:41;;;;;;;1.50;0.60;;;;;;;20.80;34.92;103274.97;10392948;28;20037;-81
2022/04/16 13:36:42;;;;;;;1.42;0.63;;;;;;;21.07;36.29;103274.91;10375572;28;20120;-79
2022/04/16 13:41:42;;;;;;;2.03;0.60;;;;;;;20.94;33.02;103260.25;10392428;28;20092;-75
2022/04/16 13:46:45;;;;;;;1.00;0.50;;;;;;;20.63;34.20;103258.25;10389326;28;20429;-72
2022/04/16 13:51:45;;;;;;;1.00;0.50;;;;;;;20.94;33.91;103265.00;10385005;28;20057;-77
2022/04/16 13:56:46;;;;;;;0.60;0.60;;;;;;;21.04;34.64;103214.66;10390319;28;20546;-83
2022/04/16 14:01:50;;;;;;;0.55;0.32;;;;;;;21.56;33.28;103250.34;10373518;28;20037;-82
2022/04/16 14:06:51;;;;;;;6.25;2.03;;;;;;;21.56;33.90;103247.56;10389482;28;20049;-76
2022/04/16 14:11:51;;;;;;;3.00;0.77;;;;;;;21.54;32.63;103235.78;10388834;28;20509;-86
2022/04/16 14:16:51;;;;;;;0.90;0.60;;;;;;;21.26;33.04;103231.34;10385304;28;20038;-73
2022/04/16 14:21:54;;;;;;;3.78;0.60;;;;;;;21.72;34.23;103239.22;10389476;28;20026;-81
2022/04/16 14:26:55;;;;;;;0.50;0.30;;;;;;;22.10;32.95;103221.16;10388690;28;20489;-73
2022/04/16 14:31:55;;;;;;;4.03;0.82;;;;;;;22.02;32.19;103229.25;10389367;28;20408;-84
2022/04/16 14:36:58;;;;;;;2.58;0.88;;;;;;;21.70;30.29;103205.00;10386707;28;20066;-73
2022/04/16 14:41:58;;;;;;;1.48;0.70;;;;;;;21.64;32.33;103217.31;10388081;28;20604;-71
2022/04/16 14:46:59;;;;;;;0.85;0.47;;;;;;;21.96;33.02;103215.19;10390064;28;20034;-74
2022/04/16 14:52:00;;;;;;;2.78;0.70;;;;;;;22.27;31.42;103192.03;10337160;28;20049;-77
2022/04/16 14:57:01;;;;;;;5.82;0.63;;;;;;;22.39;30.74;103191.75;10347317;28;20041;-74
2022/04/16 15:02:02;;;;;;;1.33;0.77;;;;;;;21.92;31.75;103214.06;10340949;28;20048;-76
2022/04/16 15:07:03;;;;;;;1.40;0.60;;;;;;;22.48;32.12;103195.72;10308800;28;20050;-73
2022/04/16 15:12:04;;;;;;;1.83;0.90;;;;;;;22.50;31.56;103194.31;10307858;28;20031;-77
2022/04/16 15:17:04;;;;;;;2.25;0.77;;;;;;;22.50;32.64;103190.66;10307467;28;20031;-80
2022/04/16 15:22:05;;;;;;;2.92;0.60;;;;;;;21.76;32.06;103189.88;10307713;28;20034;-77
2022/04/16 15:27:05;;;;;;;0.80;0.60;;;;;;;21.83;31.10;103181.22;10307557;28;20050;-78
2022/04/16 15:32:06;;;;;;;0.70;0.60;;;;;;;21.71;30.97;103178.66;10307734;28;20030;-74
2022/04/16 15:37:07;;;;;;;1.38;0.50;;;;;;;21.74;31.26;103189.31;10306519;28;20050;-76
2022/04/16 15:42:07;;;;;;;1.52;0.70;;;;;;;22.20;31.68;103191.41;10328541;28;20505;-78
2022/04/16 15:47:08;;;;;;;1.20;0.70;;;;;;;22.13;31.68;103188.88;10346622;28;20261;-78
2022/04/16 15:52:09;;;;;;;1.50;0.70;;;;;;;22.29;30.38;103181.38;10346755;28;20065;-78
2022/04/16 15:57:14;;;;;;;1.33;0.88;;;;;;;21.27;31.45;103179.81;10345146;28;20445;-78
2022/04/16 16:02:15;;;;;;;3.28;1.17;;;;;;;21.01;33.67;103198.41;10346563;28;20046;-78
2022/04/16 16:07:15;;;;;;;2.00;0.80;;;;;;;20.87;33.26;103177.56;10346699;28;20130;-78
2022/04/16 16:12:17;;;;;;;2.78;0.80;;;;;;;21.20;33.99;103184.81;10344922;28;20065;-78
2022/04/16 16:17:18;;;;;;;1.67;1.05;;;;;;;21.58;32.03;103160.41;10345675;28;20038;-78
2022/04/16 16:22:21;;;;;;;1.75;0.95;;;;;;;21.30;32.42;103153.22;10346360;28;20031;-76
2022/04/16 16:27:22;;;;;;;3.05;1.15;;;;;;;20.91;32.64;103153.53;10345072;28;20513;-79
2022/04/16 16:32:26;;;;;;;1.10;0.80;;;;;;;21.43;33.58;103155.53;10331048;28;20034;-77
2022/04/16 16:37:27;;;;;;;0.93;0.60;;;;;;;22.11;30.93;103143.44;10344388;28;20490;-77
2022/04/16 16:42:27;;;;;;;1.77;0.90;;;;;;;21.94;30.96;103133.31;10345922;28;20038;-77
2022/04/16 16:47:29;;;;;;;1.50;0.70;;;;;;;21.54;31.21;103140.47;10344826;28;20118;-79
2022/04/16 16:52:30;;;;;;;2.00;0.90;;;;;;;20.16;32.59;103126.28;10346347;28;20030;-78
2022/04/16 16:57:30;;;;;;;2.70;0.60;;;;;;;18.62;33.90;103151.28;10345269;28;20042;-78
2022/04/16 17:07:50;;;;;;;1.42;0.88;;;;;;;16.74;38.53;103170.22;10345622;28;20101;-78
2022/04/16 17:12:51;;;;;;;3.85;0.95;;;;;;;15.84;39.05;103160.03;10324102;28;20085;-78
2022/04/16 17:23:10;;;;;;;3.13;1.15;;;;;;;15.74;40.29;103165.28;10329335;28;20113;-81
2022/04/16 17:28:11;;;;;;;1.17;0.80;;;;;;;15.17;41.04;103176.56;10353609;28;20213;-79
2022/04/16 17:33:12;;;;;;;3.35;0.90;;;;;;;14.69;43.41;103191.94;10321182;28;20030;-80
2022/04/16 17:38:13;;;;;;;2.17;0.93;;;;;;;13.90;45.74;103221.81;10310241;28;20038;-81
2022/04/16 17:43:14;;;;;;;5.32;1.08;;;;;;;13.15;46.87;103224.13;10311502;28;20038;-81
2022/04/16 17:48:14;;;;;;;2.63;0.80;;;;;;;12.62;48.79;103241.53;10311620;28;20050;-78
2022/04/16 17:53:15;;;;;;;2.22;1.10;;;;;;;12.22;51.84;103252.47;10311869;28;20039;-79
2022/04/16 17:58:15;;;;;;;4.32;1.30;;;;;;;11.90;54.04;103265.94;10312402;28;20029;-80
2022/04/16 18:03:18;;;;;;;2.08;1.30;;;;;;;11.48;54.59;103239.34;10310276;28;20050;-82
2022/04/16 18:08:20;;;;;;;3.40;1.30;;;;;;;11.30;56.36;103259.16;10310493;28;20050;-79
2022/04/16 18:13:21;;;;;;;3.17;1.00;;;;;;;10.99;56.64;103246.63;10314495;28;20632;-81
2022/04/16 18:18:24;;;;;;;2.08;1.20;;;;;;;10.84;56.87;103262.41;10348249;28;20034;-78
2022/04/16 18:23:24;;;;;;;3.25;1.58;;;;;;;10.62;58.84;103265.13;10348767;28;20070;-81
2022/04/16 18:28:25;;;;;;;6.53;2.00;;;;;;;10.38;61.55;103282.91;10353233;28;20094;-82
2022/04/16 18:33:26;;;;;;;4.47;2.47;;;;;;;10.08;62.35;103282.06;10359670;28;20022;-81
2022/04/16 18:38:26;;;;;;;6.28;2.58;;;;;;;9.73;65.09;103278.22;10354236;28;20031;-81
2022/04/16 18:43:27;;;;;;;4.18;2.35;;;;;;;9.53;65.89;103299.91;10357827;28;20049;-81
2022/04/16 18:48:28;;;;;;;3.83;2.15;;;;;;;9.27;67.87;103287.47;10360197;28;20027;-80
2022/04/16 18:53:29;;;;;;;3.92;2.10;;;;;;;9.08;69.50;103291.59;10348056;28;20037;-79
2022/04/16 18:58:31;;;;;;;3.78;2.10;;;;;;;8.90;71.06;103294.66;10353656;28;20033;-80
2022/04/16 19:08:55;;;;;;;2.53;1.65;;;;;;;8.55;72.40;103291.47;10358496;28;20514;-82
2022/04/16 19:13:55;;;;;;;6.03;2.00;;;;;;;8.43;73.28;103292.91;10356059;28;20038;-81
2022/04/16 19:18:59;;;;;;;5.80;2.63;;;;;;;8.29;73.86;103295.38;10361844;28;20322;-80
2022/04/16 19:24:00;;;;;;;7.63;3.58;;;;;;;8.19;73.30;103283.75;10349727;28;20350;-80
2022/04/16 19:29:01;;;;;;;8.38;4.57;;;;;;;7.91;73.96;103255.09;10348095;28;20447;-80
2022/04/16 19:34:02;;;;;;;10.70;6.00;;;;;;;7.99;74.44;103280.59;10346455;28;20085;-81
2022/04/16 19:39:03;;;;;;;12.85;7.65;;;;;;;7.84;73.31;103264.03;10347526;28;20126;-80
2022/04/16 19:44:04;;;;;;;17.45;9.75;;;;;;;7.85;73.62;103263.00;10345593;28;20065;-80
2022/04/16 19:49:05;;;;;;;16.95;10.93;;;;;;;7.88;72.46;103272.75;10314758;28;20038;-80
2022/04/16 19:54:06;;;;;;;19.38;11.70;;;;;;;7.66;72.71;103247.78;10348065;28;20101;-80
2022/04/16 19:59:06;;;;;;;18.17;9.65;;;;;;;7.79;73.47;103279.28;10345504;28;20049;-80
2022/04/16 20:04:07;;;;;;;20.40;11.05;;;;;;;7.61;74.84;103279.53;10336125;28;20053;-80
2022/04/16 20:14:27;;;;;;;20.92;14.50;;;;;;;7.42;75.63;103287.13;10305953;28;20046;-79
2022/04/16 20:19:28;;;;;;;30.42;19.13;;;;;;;7.30;77.27;103280.28;10321962;28;20038;-80
2022/04/16 20:24:28;;;;;;;34.53;21.95;;;;;;;7.14;77.32;103258.38;10306447;28;20042;-80
2022/04/16 20:29:29;;;;;;;53.78;29.27;;;;;;;7.18;78.42;103270.72;10305676;28;20038;-80
2022/04/16 20:34:30;;;;;;;54.30;33.53;;;;;;;7.16;80.41;103283.72;10304451;28;20031;-80
2022/04/16 20:45:18;;;;;;;63.30;38.05;;;;;;;7.06;81.24;103273.78;10304138;28;20522;-80
2022/04/16 20:50:09;;;;;;;84.28;53.42;;;;;;;6.89;82.18;103265.75;10305334;28;20081;-81
2022/04/16 20:55:10;;;;;;;92.03;55.17;;;;;;;6.74;83.42;103251.88;10304875;28;20038;-81
2022/04/16 21:00:11;;;;;;;96.72;59.83;;;;;;;6.76;85.74;103274.47;10295932;28;20035;-81
2022/04/16 21:05:12;;;;;;;102.63;62.65;;;;;;;6.67;86.71;103262.66;10313449;28;20463;-80
2022/04/16 21:10:12;;;;;;;118.97;73.75;;;;;;;6.49;85.50;103234.59;10313604;28;20050;-80
2022/04/16 21:15:13;;;;;;;124.88;77.65;;;;;;;6.52;85.47;103235.09;10296292;28;20074;-80
2022/04/16 21:20:15;;;;;;;138.52;80.13;;;;;;;6.52;86.82;103232.38;10313605;28;20039;-80
2022/04/16 21:25:16;;;;;;;130.75;79.75;;;;;;;6.51;85.35;103235.28;10312663;28;20039;-80
2022/04/16 21:30:19;;;;;;;141.45;88.40;;;;;;;6.33;85.92;103205.34;10312431;28;20027;-80
2022/04/16 21:35:20;;;;;;;144.57;88.90;;;;;;;6.36;86.72;103224.13;10311288;28;20038;-80
2022/04/16 21:40:20;;;;;;;147.75;93.50;;;;;;;6.25;86.99;103225.31;10311259;28;20102;-80
2022/04/16 21:45:21;;;;;;;140.48;91.50;;;;;;;6.13;88.74;103235.72;10327805;28;20609;-80
2022/04/16 21:50:21;;;;;;;140.88;85.88;;;;;;;5.94;90.62;103238.72;10326877;28;20061;-80
2022/04/16 21:55:21;;;;;;;135.57;81.20;;;;;;;5.44;91.76;103177.53;10309190;28;20050;-81
2022/04/16 22:00:38;;;;;;;117.43;75.05;;;;;;;5.66;92.57;103230.72;10347280;28;20050;-81
2022/04/16 22:05:38;;;;;;;108.72;65.03;;;;;;;5.60;92.87;103231.38;10334135;28;20423;-81
2022/04/16 22:10:39;;;;;;;96.93;57.95;;;;;;;5.58;95.48;103236.16;10309174;28;20047;-81
2022/04/16 22:15:39;;;;;;;92.13;56.50;;;;;;;5.38;96.08;103220.00;10310121;28;20039;-80
2022/04/16 22:20:40;;;;;;;87.60;53.08;;;;;;;5.24;97.59;103217.88;10325209;28;20647;-80
2022/04/16 22:25:40;;;;;;;81.85;49.95;;;;;;;5.27;99.06;103242.13;10309845;28;20023;-80
2022/04/16 22:30:40;;;;;;;75.53;47.38;;;;;;;5.16;100.00;103239.66;10308917;28;20039;-78
2022/04/16 22:35:41;;;;;;;76.10;46.00;;;;;;;4.70;100.00;103173.50;10293350;28;20027;-80
2022/04/16 22:41:00;;;;;;;73.80;47.13;;;;;;;4.90;100.00;103235.06;10321287;28;20042;-79
2022/04/16 22:46:00;;;;;;;77.10;45.22;;;;;;;4.72;100.00;103226.03;10343132;28;20034;-80
2022/04/16 22:51:02;;;;;;;71.72;44.45;;;;;;;4.58;100.00;103241.09;10295805;28;20460;-80
2022/04/16 22:56:04;;;;;;;73.18;43.97;;;;;;;4.41;100.00;103234.63;10345705;28;20153;-80
2022/04/16 23:01:07;;;;;;;68.45;42.00;;;;;;;4.23;100.00;103232.72;10315277;28;20094;-79
2022/04/16 23:06:07;;;;;;;69.20;43.35;;;;;;;4.07;100.00;103227.09;10307741;28;20038;-78
2022/04/16 23:11:08;;;;;;;59.15;37.30;;;;;;;3.97;100.00;103220.84;10324371;28;20042;-79
2022/04/16 23:21:27;;;;;;;54.55;32.25;;;;;;;3.63;100.00;103165.09;10308278;28;20058;-79
2022/04/16 23:26:28;;;;;;;47.03;30.52;;;;;;;3.82;100.00;103210.47;10340573;28;20034;-80
2022/04/16 23:31:28;;;;;;;46.00;29.67;;;;;;;3.71;100.00;103201.66;10330738;28;20043;-80
2022/04/16 23:36:29;;;;;;;43.15;26.02;;;;;;;3.64;100.00;103190.50;10347617;28;20396;-79
2022/04/16 23:41:29;;;;;;;40.50;26.35;;;;;;;3.70;100.00;103198.06;10347251;28;20065;-80
2022/04/16 23:51:49;;;;;;;36.75;23.27;;;;;;;3.49;100.00;103186.56;10305484;28;20054;-80